Time;durP1;ratioP1;P1;durP2;ratioP2;P2;SDS_P1;SDS_P2;PMS_P1;PMS_P2;Temp;Humidity;BMP_temperature;BMP_pressure;BME280_temperature;BME280_humidity;BME280_pressure;Samples;Min_cycle;Max_cycle;Signal;HPM_P1;HPM_P2
2023/03/08 00:02:07;;;;;;;36.97;12.00;;;2.80;99.90;;;;;;5033933;28;20336;-82
2023/03/08 00:04:34;;;;;;;39.57;12.37;;;2.90;99.90;;;;;;5027672;28;20209;-81
2023/03/08 00:07:01;;;;;;;38.17;12.30;;;2.80;99.90;;;;;;5003099;28;20288;-83
2023/03/08 00:09:29;;;;;;;33.70;12.27;;;2.80;99.90;;;;;;5013578;28;20212;-82
2023/03/08 00:11:56;;;;;;;42.70;13.23;;;2.90;99.90;;;;;;5016868;28;20206;-82
2023/03/08 00:14:23;;;;;;;36.50;12.40;;;2.90;99.90;;;;;;5011794;28;20249;-82
2023/03/08 00:16:49;;;;;;;38.47;12.13;;;2.80;99.90;;;;;;5030124;28;20233;-84
2023/03/08 00:19:16;;;;;;;39.60;13.70;;;2.90;99.90;;;;;;5048288;28;20190;-84
2023/03/08 00:21:43;;;;;;;38.13;13.17;;;2.90;99.90;;;;;;5041450;28;20287;-82
2023/03/08 00:24:11;;;;;;;39.67;12.53;;;3.10;99.90;;;;;;5010243;28;20250;-84
2023/03/08 00:26:43;;;;;;;35.33;12.43;;;;;;;;;;5035685;28;20200;-82
2023/03/08 00:29:11;;;;;;;37.10;12.00;;;2.90;99.90;;;;;;5031958;28;20199;-83
2023/03/08 00:31:38;;;;;;;36.60;12.20;;;3.10;99.90;;;;;;5019101;28;20225;-82
2023/03/08 00:34:05;;;;;;;33.80;12.07;;;2.90;99.90;;;;;;5016746;28;20206;-82
2023/03/08 00:36:32;;;;;;;37.67;11.97;;;2.80;99.90;;;;;;4998997;28;20673;-82
2023/03/08 00:38:59;;;;;;;32.87;10.57;;;2.90;99.90;;;;;;5015872;28;20199;-83
2023/03/08 00:41:26;;;;;;;38.13;12.03;;;3.20;99.90;;;;;;5018046;28;20211;-82
2023/03/08 00:43:54;;;;;;;33.97;11.70;;;2.80;99.90;;;;;;5005612;28;20268;-83
2023/03/08 00:46:21;;;;;;;37.97;11.57;;;2.90;99.90;;;;;;5026777;28;20235;-83
2023/03/08 00:48:48;;;;;;;39.63;11.57;;;2.80;99.90;;;;;;5012795;28;20244;-82
2023/03/08 00:51:16;;;;;;;40.47;12.40;;;2.90;99.90;;;;;;5028178;28;20215;-83
2023/03/08 00:53:44;;;;;;;37.57;12.80;;;2.80;99.90;;;;;;5030580;28;20267;-82
2023/03/08 00:56:11;;;;;;;36.80;12.40;;;2.80;99.90;;;;;;5016887;28;20237;-82
2023/03/08 00:58:40;;;;;;;38.13;12.30;;;2.90;99.90;;;;;;5006851;28;20232;-82
2023/03/08 01:01:13;;;;;;;38.30;12.37;;;2.70;99.90;;;;;;5003284;28;20256;-82
2023/03/08 01:03:40;;;;;;;28.77;10.10;;;3.10;99.90;;;;;;5016105;28;20211;-83
2023/03/08 01:06:08;;;;;;;33.97;11.63;;;2.80;99.90;;;;;;5012259;28;20648;-82
2023/03/08 01:08:36;;;;;;;34.43;12.20;;;2.90;99.90;;;;;;5024738;28;20862;-82
2023/03/08 01:11:03;;;;;;;36.40;11.87;;;2.80;99.90;;;;;;5003570;28;20231;-82
2023/03/08 01:13:31;;;;;;;31.23;11.10;;;2.80;99.90;;;;;;5026826;28;20300;-83
2023/03/08 01:15:59;;;;;;;38.87;12.33;;;2.80;99.90;;;;;;5012469;28;20237;-83
2023/03/08 01:18:27;;;;;;;39.47;11.80;;;;;;;;;;5016961;28;20252;-83
2023/03/08 01:20:59;;;;;;;31.40;11.47;;;2.90;99.90;;;;;;5010275;28;20227;-83
2023/03/08 01:23:26;;;;;;;36.37;11.60;;;2.90;99.90;;;;;;5015921;28;20226;-82
2023/03/08 01:26:00;;;;;;;37.17;12.10;;;2.70;99.90;;;;;;5031761;28;20211;-83
2023/03/08 01:28:27;;;;;;;34.37;11.97;;;2.90;99.90;;;;;;5021240;28;20238;-83
2023/03/08 01:30:54;;;;;;;42.17;13.60;;;2.80;99.90;;;;;;5005274;28;20740;-83
2023/03/08 01:33:21;;;;;;;30.67;11.77;;;2.90;99.90;;;;;;5010697;28;20213;-82
2023/03/08 01:35:51;;;;;;;34.70;11.63;;;3.30;99.90;;;;;;5035488;28;20233;-84
2023/03/08 01:38:18;;;;;;;39.53;13.43;;;3.00;99.90;;;;;;5020314;28;20227;-81
2023/03/08 01:40:45;;;;;;;33.50;11.80;;;2.60;99.90;;;;;;4997228;28;20248;-81
2023/03/08 01:43:23;;;;;;;49.63;14.33;;;2.90;99.90;;;;;;5026836;28;20764;-81
2023/03/08 01:46:14;;;;;;;39.90;13.13;;;2.90;99.90;;;;;;5028928;28;20214;-81
2023/03/08 01:48:47;;;;;;;30.73;11.83;;;2.80;99.90;;;;;;4992885;28;20649;-80
2023/03/08 01:51:24;;;;;;;37.10;11.00;;;2.90;99.90;;;;;;5001854;28;20220;-81
2023/03/08 01:53:53;;;;;;;38.37;12.93;;;3.10;99.90;;;;;;5000758;28;20230;-81
2023/03/08 01:56:22;;;;;;;35.37;12.33;;;2.90;99.90;;;;;;5007545;28;20234;-81
2023/03/08 01:58:51;;;;;;;35.70;12.70;;;2.40;99.90;;;;;;5025652;28;20257;-80
2023/03/08 02:01:19;;;;;;;34.80;12.53;;;2.70;99.90;;;;;;4996063;28;20218;-80
2023/03/08 02:03:47;;;;;;;35.73;12.20;;;2.70;99.90;;;;;;5004442;28;20242;-80
2023/03/08 02:06:19;;;;;;;33.87;12.33;;;2.70;99.90;;;;;;4999703;28;20547;-80
2023/03/08 02:08:47;;;;;;;40.67;13.13;;;3.00;99.90;;;;;;5005900;28;20229;-80
2023/03/08 02:11:15;;;;;;;32.90;11.93;;;2.60;99.90;;;;;;5012735;28;20851;-81
2023/03/08 02:13:42;;;;;;;35.47;12.50;;;2.50;99.90;;;;;;5009614;28;20776;-80
2023/03/08 02:16:13;;;;;;;36.73;12.33;;;2.60;99.90;;;;;;4992182;28;20223;-80
2023/03/08 02:18:50;;;;;;;40.27;13.07;;;2.60;99.90;;;;;;5022828;28;20291;-81
2023/03/08 02:21:19;;;;;;;39.23;12.30;;;2.60;99.90;;;;;;4986619;28;20221;-81
2023/03/08 02:23:48;;;;;;;42.40;12.67;;;2.60;99.90;;;;;;4993437;28;20205;-82
2023/03/08 02:26:16;;;;;;;33.00;11.30;;;2.60;99.90;;;;;;4987592;28;20757;-81
2023/03/08 02:28:44;;;;;;;38.20;12.23;;;2.60;99.90;;;;;;5008340;28;20235;-81
2023/03/08 02:31:13;;;;;;;34.40;11.57;;;2.60;99.90;;;;;;4995414;28;20516;-81
2023/03/08 02:33:40;;;;;;;35.30;10.97;;;2.60;99.90;;;;;;5011329;28;20211;-81
2023/03/08 02:36:08;;;;;;;35.43;11.33;;;2.60;99.90;;;;;;5000898;28;20523;-81
2023/03/08 02:38:35;;;;;;;31.07;10.70;;;2.60;99.90;;;;;;5010756;28;20231;-81
2023/03/08 02:41:04;;;;;;;34.33;10.67;;;2.50;99.90;;;;;;5001999;28;20215;-81
2023/03/08 02:43:31;;;;;;;33.73;10.67;;;2.90;99.90;;;;;;5010584;28;20214;-81
2023/03/08 02:45:57;;;;;;;32.40;10.47;;;2.70;99.90;;;;;;5027687;28;20193;-82
2023/03/08 02:48:24;;;;;;;32.93;10.47;;;2.70;99.90;;;;;;5008129;28;20239;-81
2023/03/08 02:50:51;;;;;;;37.77;11.67;;;2.60;99.90;;;;;;4991991;28;20211;-82
2023/03/08 02:53:18;;;;;;;34.40;11.03;;;2.60;99.90;;;;;;5004494;28;20216;-81
2023/03/08 02:55:45;;;;;;;33.63;11.27;;;2.60;99.90;;;;;;4990953;28;20229;-82
2023/03/08 02:58:14;;;;;;;36.07;11.70;;;2.80;99.90;;;;;;4985998;28;20742;-81
2023/03/08 03:00:41;;;;;;;33.17;11.97;;;2.60;99.90;;;;;;5013677;28;20208;-81
2023/03/08 03:03:08;;;;;;;38.43;12.63;;;2.60;99.90;;;;;;4997826;28;20198;-81
2023/03/08 03:05:39;;;;;;;39.03;13.50;;;3.30;99.90;;;;;;4992584;28;20203;-81
2023/03/08 03:08:07;;;;;;;46.73;14.93;;;3.20;99.90;;;;;;4981718;28;20265;-81
2023/03/08 03:10:35;;;;;;;41.77;14.20;;;2.50;99.90;;;;;;4991567;28;20692;-81
2023/03/08 03:13:02;;;;;;;43.97;14.03;;;2.70;99.90;;;;;;4991405;28;20309;-81
2023/03/08 03:15:33;;;;;;;38.57;12.83;;;2.60;99.90;;;;;;5009292;28;20231;-81
2023/03/08 03:18:01;;;;;;;45.67;14.33;;;3.60;99.90;;;;;;4991666;28;20734;-81
2023/03/08 03:20:28;;;;;;;36.27;13.00;;;2.60;99.90;;;;;;5002501;28;20210;-81
2023/03/08 03:22:55;;;;;;;43.73;15.57;;;2.60;99.90;;;;;;5011276;28;20218;-82
2023/03/08 03:25:28;;;;;;;41.97;14.30;;;3.90;99.90;;;;;;4983411;28;20289;-82
2023/03/08 03:27:55;;;;;;;38.23;13.90;;;2.50;99.90;;;;;;4998700;28;20233;-81
2023/03/08 03:30:24;;;;;;;41.53;15.30;;;2.50;99.90;;;;;;4998306;28;20741;-82
2023/03/08 03:32:53;;;;;;;42.10;15.93;;;2.60;99.90;;;;;;4998106;28;20708;-79
2023/03/08 03:35:25;;;;;;;37.20;12.83;;;2.60;99.90;;;;;;4990147;28;20214;-82
2023/03/08 03:37:53;;;;;;;45.97;15.13;;;4.50;99.90;;;;;;5002044;28;20234;-81
2023/03/08 03:40:20;;;;;;;43.00;14.53;;;2.40;99.90;;;;;;5011761;28;20588;-81
2023/03/08 03:42:53;;;;;;;47.63;15.90;;;2.60;99.90;;;;;;5023267;28;20206;-80
2023/03/08 03:45:20;;;;;;;52.10;16.97;;;2.70;99.90;;;;;;5008529;28;20245;-81
2023/03/08 03:47:48;;;;;;;44.93;15.77;;;2.50;99.90;;;;;;5005734;28;20300;-80
2023/03/08 03:50:18;;;;;;;45.47;17.60;;;2.50;99.90;;;;;;5008824;28;20243;-81
2023/03/08 03:52:59;;;;;;;43.43;16.20;;;2.60;99.90;;;;;;5027759;28;20542;-81
2023/03/08 03:55:28;;;;;;;50.17;17.33;;;2.50;99.90;;;;;;5035370;28;20202;-81
2023/03/08 03:57:55;;;;;;;44.30;16.07;;;2.50;99.90;;;;;;5011063;28;20390;-81
2023/03/08 04:00:23;;;;;;;35.93;12.40;;;2.80;99.90;;;;;;5027578;28;20190;-80
2023/03/08 04:02:59;;;;;;;48.00;18.00;;;2.40;99.90;;;;;;5009788;28;20210;-81
2023/03/08 04:05:30;;;;;;;54.57;18.73;;;2.40;99.90;;;;;;5019018;28;20207;-81
2023/03/08 04:07:57;;;;;;;54.23;19.13;;;2.40;99.90;;;;;;5002056;28;20276;-81
2023/03/08 04:10:27;;;;;;;46.30;16.00;;;2.40;99.90;;;;;;4974819;28;20211;-80
2023/03/08 04:12:54;;;;;;;55.27;19.33;;;2.40;99.90;;;;;;5002066;28;20732;-80
2023/03/08 04:15:22;;;;;;;50.03;16.07;;;2.30;99.90;;;;;;5000699;28;20315;-80
2023/03/08 04:17:51;;;;;;;54.60;16.37;;;3.40;99.90;;;;;;5004042;28;20659;-81
2023/03/08 04:20:20;;;;;;;55.63;20.57;;;2.40;99.90;;;;;;5012341;28;20245;-80
2023/03/08 04:22:55;;;;;;;57.33;18.20;;;2.30;99.90;;;;;;5030107;28;20206;-80
2023/03/08 04:25:28;;;;;;;61.97;23.47;;;2.30;99.90;;;;;;4993470;28;20206;-81
2023/03/08 04:27:59;;;;;;;52.37;19.13;;;2.30;99.90;;;;;;4999462;28;20226;-80
2023/03/08 04:30:26;;;;;;;66.57;23.63;;;2.30;99.90;;;;;;5000921;28;20217;-81
2023/03/08 04:32:56;;;;;;;48.30;16.53;;;2.20;99.90;;;;;;5001539;28;20219;-81
2023/03/08 04:35:27;;;;;;;46.77;14.93;;;2.20;99.90;;;;;;4996943;28;20202;-81
2023/03/08 04:37:56;;;;;;;63.83;23.80;;;2.30;99.90;;;;;;4991564;28;21013;-81
2023/03/08 04:40:27;;;;;;;51.37;18.63;;;2.70;99.90;;;;;;4999987;28;20709;-81
2023/03/08 04:42:59;;;;;;;68.00;24.10;;;2.30;99.90;;;;;;4994766;28;20203;-81
2023/03/08 04:45:32;;;;;;;54.43;19.80;;;2.10;99.90;;;;;;5014561;28;20212;-81
2023/03/08 04:48:03;;;;;;;63.03;23.20;;;2.20;99.90;;;;;;5010669;28;20651;-82
2023/03/08 04:50:32;;;;;;;57.73;20.93;;;2.20;99.90;;;;;;4996907;28;20296;-84
2023/03/08 04:53:01;;;;;;;57.57;20.17;;;2.30;99.90;;;;;;5003762;28;20297;-84
2023/03/08 04:55:29;;;;;;;72.33;27.03;;;2.20;99.90;;;;;;5018513;28;20571;-84
2023/03/08 04:57:56;;;;;;;60.73;20.60;;;2.20;99.90;;;;;;5006075;28;20719;-84
2023/03/08 05:00:24;;;;;;;62.30;21.70;;;1.80;99.90;;;;;;5014105;28;20229;-84
2023/03/08 05:02:51;;;;;;;57.63;21.33;;;1.60;99.90;;;;;;5017165;28;20534;-82
2023/03/08 05:05:19;;;;;;;56.40;20.57;;;2.30;99.90;;;;;;5019867;28;20206;-83
2023/03/08 05:07:47;;;;;;;57.57;22.10;;;2.10;99.90;;;;;;5021380;28;20807;-85
2023/03/08 05:10:16;;;;;;;57.00;21.47;;;2.10;99.90;;;;;;5000140;28;20290;-84
2023/03/08 05:12:42;;;;;;;41.70;15.10;;;3.60;99.90;;;;;;5003406;28;20215;-84
2023/03/08 05:15:10;;;;;;;61.10;22.83;;;2.10;99.90;;;;;;5008795;28;20288;-82
2023/03/08 05:17:37;;;;;;;52.53;19.43;;;2.30;99.90;;;;;;5015448;28;20234;-82
2023/03/08 05:20:06;;;;;;;59.97;21.33;;;2.10;99.90;;;;;;5014970;28;20999;-82
2023/03/08 05:22:37;;;;;;;58.63;20.60;;;2.50;99.90;;;;;;5014989;28;20210;-81
2023/03/08 05:25:05;;;;;;;60.33;20.67;;;2.20;99.90;;;;;;5015074;28;20218;-81
2023/03/08 05:27:34;;;;;;;47.40;16.47;;;2.30;99.90;;;;;;5032389;28;20245;-81
2023/03/08 05:30:03;;;;;;;47.33;17.13;;;2.20;99.90;;;;;;5008069;28;20220;-81
2023/03/08 05:32:32;;;;;;;51.90;18.73;;;2.20;99.90;;;;;;5008382;28;20222;-81
2023/03/08 05:34:59;;;;;;;52.23;19.20;;;2.20;99.90;;;;;;4995255;28;20217;-80
2023/03/08 05:37:32;;;;;;;59.43;20.00;;;1.80;99.90;;;;;;4976119;28;20710;-81
2023/03/08 05:40:04;;;;;;;45.57;14.40;;;2.10;99.90;;;;;;4992007;28;20823;-81
2023/03/08 05:42:33;;;;;;;57.77;19.07;;;2.10;99.90;;;;;;5003494;28;20225;-81
2023/03/08 05:45:00;;;;;;;53.90;19.23;;;2.00;99.90;;;;;;5001088;28;20256;-81
2023/03/08 05:47:33;;;;;;;52.67;18.43;;;2.00;99.90;;;;;;4994848;28;20245;-80
2023/03/08 05:50:00;;;;;;;53.67;19.17;;;2.00;99.90;;;;;;4995805;28;20297;-80
2023/03/08 05:52:30;;;;;;;64.13;22.80;;;2.00;99.90;;;;;;5015257;28;20283;-80
2023/03/08 05:54:58;;;;;;;63.63;20.30;;;2.30;99.90;;;;;;5000884;28;20206;-81
2023/03/08 05:57:25;;;;;;;53.07;19.00;;;2.00;99.90;;;;;;5007138;28;20238;-81
2023/03/08 05:59:54;;;;;;;42.67;14.43;;;1.90;99.90;;;;;;5001248;28;20211;-81
2023/03/08 06:02:22;;;;;;;61.57;21.37;;;2.00;99.90;;;;;;5015215;28;20296;-81
2023/03/08 06:04:53;;;;;;;48.73;14.33;;;1.80;99.90;;;;;;5031732;28;20198;-81
2023/03/08 06:07:22;;;;;;;47.37;13.87;;;1.80;99.90;;;;;;5004519;28;20223;-81
2023/03/08 06:10:03;;;;;;;44.80;14.67;;;1.80;99.90;;;;;;4994495;28;20271;-80
2023/03/08 06:12:31;;;;;;;48.57;14.73;;;1.70;99.90;;;;;;5007372;28;20198;-80
2023/03/08 06:15:04;;;;;;;41.60;14.27;;;1.70;99.90;;;;;;5005519;28;20634;-81
2023/03/08 06:17:35;;;;;;;42.07;12.47;;;1.70;99.90;;;;;;5006216;28;20226;-81
2023/03/08 06:20:01;;;;;;;44.13;12.73;;;1.60;99.90;;;;;;5008109;28;20213;-80
2023/03/08 06:22:31;;;;;;;52.43;16.87;;;1.60;99.90;;;;;;5012789;28;20688;-80
2023/03/08 06:24:59;;;;;;;32.40;9.03;;;1.70;99.90;;;;;;5004371;28;20694;-81
2023/03/08 06:27:32;;;;;;;40.83;12.07;;;1.50;99.90;;;;;;5012410;28;20727;-80
2023/03/08 06:30:04;;;;;;;45.27;12.87;;;1.40;99.90;;;;;;5008013;28;20219;-80
2023/03/08 06:32:34;;;;;;;41.33;9.93;;;1.40;99.90;;;;;;5008296;28;20211;-81
2023/03/08 06:35:01;;;;;;;39.70;9.90;;;1.70;99.90;;;;;;4984493;28;20214;-81
2023/03/08 06:37:32;;;;;;;41.07;10.77;;;1.20;99.90;;;;;;4982822;28;20640;-81
2023/03/08 06:40:00;;;;;;;40.73;11.03;;;1.20;99.90;;;;;;4982595;28;20232;-81
2023/03/08 06:42:28;;;;;;;31.47;7.63;;;1.10;99.90;;;;;;4986687;28;20256;-81
2023/03/08 06:44:55;;;;;;;32.30;8.53;;;1.10;99.90;;;;;;5009731;28;20206;-81
2023/03/08 06:47:23;;;;;;;36.23;10.03;;;1.10;99.90;;;;;;4993261;28;20234;-81
2023/03/08 06:49:52;;;;;;;28.00;7.97;;;1.10;99.90;;;;;;5006963;28;20202;-81
2023/03/08 06:52:19;;;;;;;27.03;5.83;;;1.10;99.90;;;;;;4993581;28;20577;-81
2023/03/08 06:54:47;;;;;;;27.67;7.50;;;1.20;99.90;;;;;;5001888;28;20216;-81
2023/03/08 06:57:14;;;;;;;30.93;8.00;;;1.10;99.90;;;;;;4991660;28;20254;-81
2023/03/08 06:59:41;;;;;;;33.00;7.40;;;1.10;99.90;;;;;;5009822;28;20211;-81
2023/03/08 07:02:09;;;;;;;25.40;7.20;;;1.30;99.90;;;;;;5019715;28;20281;-81
2023/03/08 07:04:40;;;;;;;25.10;6.80;;;1.20;99.90;;;;;;5022219;28;20210;-81
2023/03/08 07:07:07;;;;;;;32.27;8.23;;;1.10;99.90;;;;;;5031849;28;20246;-80
2023/03/08 07:09:34;;;;;;;26.80;7.43;;;1.10;99.90;;;;;;5015131;28;20211;-81
2023/03/08 07:12:01;;;;;;;31.70;7.50;;;1.10;99.90;;;;;;5026458;28;20249;-81
2023/03/08 07:14:28;;;;;;;30.00;7.97;;;1.20;99.90;;;;;;5028894;28;20225;-81
2023/03/08 07:16:57;;;;;;;29.17;7.43;;;1.00;99.90;;;;;;5017778;28;20312;-81
2023/03/08 07:19:27;;;;;;;31.93;8.17;;;1.10;99.90;;;;;;5005949;28;20206;-81
2023/03/08 07:21:56;;;;;;;29.90;7.60;;;;;;;;;;5031414;28;20201;-81
2023/03/08 07:24:23;;;;;;;32.07;8.80;;;1.10;99.90;;;;;;5041897;28;20208;-80
2023/03/08 07:26:50;;;;;;;29.63;7.80;;;1.20;99.90;;;;;;5026614;28;20230;-81
2023/03/08 07:29:17;;;;;;;39.60;9.93;;;1.10;99.90;;;;;;5024055;28;20221;-81
2023/03/08 07:31:44;;;;;;;34.40;8.73;;;1.10;99.90;;;;;;5038365;28;20210;-87
2023/03/08 07:34:11;;;;;;;31.73;7.87;;;1.10;99.90;;;;;;5032872;28;20190;-82
2023/03/08 07:36:39;;;;;;;34.00;9.67;;;1.20;99.90;;;;;;5010185;28;20240;-81
2023/03/08 07:39:08;;;;;;;31.13;7.83;;;1.20;99.90;;;;;;5008586;28;20222;-81
2023/03/08 07:41:36;;;;;;;30.17;8.10;;;1.10;99.90;;;;;;4985499;28;20785;-83
2023/03/08 07:44:02;;;;;;;32.00;9.17;;;1.10;99.90;;;;;;5006442;28;20207;-82
2023/03/08 07:46:29;;;;;;;25.93;7.67;;;1.10;99.90;;;;;;5026766;28;20221;-83
2023/03/08 07:48:56;;;;;;;37.93;9.60;;;1.00;99.90;;;;;;5018796;28;20233;-82
2023/03/08 07:51:27;;;;;;;34.77;8.47;;;1.00;99.90;;;;;;5029164;28;20207;-82
2023/03/08 07:53:54;;;;;;;32.43;8.33;;;1.00;99.90;;;;;;5031429;28;20226;-83
2023/03/08 07:56:22;;;;;;;30.80;8.10;;;0.90;99.90;;;;;;5040632;28;20219;-83
2023/03/08 07:58:49;;;;;;;34.13;9.00;;;0.90;99.90;;;;;;5031151;28;20265;-82
2023/03/08 08:01:16;;;;;;;28.53;7.40;;;0.80;99.90;;;;;;5017417;28;20314;-84
2023/03/08 08:03:44;;;;;;;29.80;7.93;;;0.90;99.90;;;;;;5018481;28;20714;-83
2023/03/08 08:06:11;;;;;;;18.40;5.93;;;0.70;99.90;;;;;;5001614;28;20244;-83
2023/03/08 08:11:29;;;;;;;26.23;6.47;;;;;;;;;;4995868;28;20285;-83
2023/03/08 08:13:57;;;;;;;29.30;7.47;;;;;;;;;;5015526;28;20587;-83
2023/03/08 08:16:24;;;;;;;21.70;5.27;;;0.90;99.90;;;;;;5024322;28;20214;-83
2023/03/08 08:18:53;;;;;;;24.73;6.23;;;0.60;99.90;;;;;;5015445;28;20337;-84
2023/03/08 08:21:20;;;;;;;23.97;6.57;;;0.60;99.90;;;;;;4995689;28;20219;-84
2023/03/08 08:23:47;;;;;;;25.70;6.40;;;1.60;99.90;;;;;;5032733;28;20210;-84
2023/03/08 08:26:16;;;;;;;30.10;7.30;;;0.60;99.90;;;;;;5005538;28;20302;-83
2023/03/08 08:28:46;;;;;;;18.17;5.23;;;0.40;99.90;;;;;;4999607;28;20227;-84
2023/03/08 08:31:15;;;;;;;19.70;5.60;;;0.50;99.90;;;;;;5030509;28;20206;-84
2023/03/08 08:33:43;;;;;;;22.23;5.73;;;0.50;99.90;;;;;;5032467;28;20213;-81
2023/03/08 08:36:13;;;;;;;18.77;4.23;;;0.40;99.90;;;;;;5008952;28;20210;-81
2023/03/08 08:38:42;;;;;;;24.33;5.80;;;0.40;99.90;;;;;;5014410;28;20752;-84
2023/03/08 08:41:09;;;;;;;19.57;4.83;;;0.30;99.90;;;;;;4994759;28;20207;-84
2023/03/08 08:43:36;;;;;;;;;;;0.20;99.90;;;;;;5016100;28;20279;-83
2023/03/08 08:46:05;;;;;;;;;;;0.20;99.90;;;;;;5000925;28;19925;-83
2023/03/08 08:48:32;;;;;;;;;;;0.20;99.90;;;;;;5018770;28;19929;-85
2023/03/08 08:50:59;;;;;;;;;;;0.10;99.90;;;;;;4998949;28;20539;-85
2023/03/08 08:53:26;;;;;;;;;;;0.10;99.90;;;;;;5007516;28;19936;-85
2023/03/08 08:55:53;;;;;;;;;;;0.10;99.90;;;;;;5043181;28;20079;-84
2023/03/08 08:58:20;;;;;;;18.57;4.80;;;0.30;99.90;;;;;;5017668;28;20048;-85
2023/03/08 09:00:48;;;;;;;17.83;4.80;;;0.20;99.90;;;;;;5037069;28;20244;-85
2023/03/08 09:03:19;;;;;;;19.87;5.47;;;0.30;99.90;;;;;;5003128;28;20261;-86
2023/03/08 09:05:48;;;;;;;18.60;5.20;;;;;;;;;;4994287;28;20317;-86
2023/03/08 09:08:15;;;;;;;25.87;6.60;;;;;;;;;;5004038;28;20231;-84
2023/03/08 09:10:42;;;;;;;24.03;5.80;;;0.30;99.90;;;;;;5016990;28;20598;-84
2023/03/08 09:13:10;;;;;;;;;;;0.10;99.90;;;;;;5020885;28;20214;-83
2023/03/08 09:15:37;;;;;;;;;;;0.10;99.90;;;;;;5034030;28;19983;-83
2023/03/08 09:18:04;;;;;;;;;;;0.50;99.90;;;;;;5024989;28;19922;-84
2023/03/08 09:20:32;;;;;;;;;;;0.50;99.90;;;;;;5024087;28;19921;-84
2023/03/08 09:22:59;;;;;;;;;;;0.40;99.90;;;;;;5018267;28;19931;-84
2023/03/08 09:25:25;;;;;;;;;;;0.40;99.90;;;;;;5008157;28;19926;-84
2023/03/08 09:27:55;;;;;;;;;;;0.40;99.90;;;;;;4997317;28;19926;-83
2023/03/08 09:30:22;;;;;;;;;;;0.70;99.90;;;;;;5008230;28;19932;-83
2023/03/08 09:32:50;;;;;;;;;;;0.50;99.90;;;;;;5005812;28;19941;-83
2023/03/08 09:35:17;;;;;;;;;;;0.40;99.90;;;;;;5009886;28;19925;-84
2023/03/08 09:37:45;;;;;;;;;;;0.50;99.90;;;;;;4985347;28;19967;-84
2023/03/08 09:40:18;;;;;;;;;;;0.50;99.90;;;;;;4999715;28;20425;-84
2023/03/08 09:42:45;;;;;;;;;;;0.60;99.90;;;;;;5030705;28;19932;-85
2023/03/08 09:45:19;;;;;;;;;;;0.60;99.90;;;;;;5012676;28;19925;-84
2023/03/08 09:47:47;;;;;;;;;;;0.50;99.90;;;;;;5009890;28;20344;-84
2023/03/08 09:50:19;;;;;;;;;;;0.50;99.90;;;;;;5012778;28;19921;-85
2023/03/08 09:52:50;;;;;;;;;;;0.60;99.90;;;;;;5005375;28;20337;-85
2023/03/08 09:55:19;;;;;;;;;;;0.60;99.90;;;;;;4997950;28;19929;-87
2023/03/08 09:57:51;;;;;;;;;;;0.80;99.90;;;;;;4999947;28;19957;-87
2023/03/08 10:00:19;;;;;;;;;;;0.20;99.90;;;;;;5031237;28;19969;-87
2023/03/08 10:02:49;;;;;;;;;;;1.00;99.90;;;;;;5010127;28;19921;-86
2023/03/08 10:05:21;;;;;;;;;;;0.80;99.90;;;;;;5014560;28;20363;-82
2023/03/08 10:07:52;;;;;;;;;;;0.90;99.90;;;;;;5019585;28;20547;-86
2023/03/08 10:10:33;;;;;;;;;;;1.00;99.90;;;;;;5001584;28;20837;-86
2023/03/08 10:13:05;;;;;;;;;;;0.90;99.90;;;;;;5023232;28;19925;-86
2023/03/08 10:15:33;;;;;;;;;;;0.70;99.90;;;;;;5002770;28;20511;-86
2023/03/08 10:18:02;;;;;;;;;;;0.80;99.90;;;;;;5003233;28;20493;-86
2023/03/08 10:20:36;;;;;;;;;;;-0.70;99.90;;;;;;5019063;28;19948;-87
2023/03/08 10:23:10;;;;;;;;;;;0.90;99.90;;;;;;5038133;28;19994;-87
2023/03/08 10:25:37;;;;;;;;;;;0.80;99.90;;;;;;5017018;28;20342;-87
2023/03/08 10:28:09;;;;;;;;;;;1.10;99.90;;;;;;5030364;28;19925;-88
2023/03/08 10:30:37;;;;;;;;;;;1.10;99.90;;;;;;5013578;28;19925;-87
2023/03/08 10:33:05;;;;;;;;;;;0.60;99.90;;;;;;5012579;28;19944;-86
2023/03/08 10:35:33;;;;;;;;;;;1.20;99.90;;;;;;5022266;28;19929;-86
2023/03/08 10:38:00;;;;;;;;;;;1.40;99.90;;;;;;5000597;28;19945;-87
2023/03/08 10:40:30;;;;;;;;;;;1.40;99.90;;;;;;4973094;28;19929;-88
2023/03/08 10:43:00;;;;;;;;;;;1.40;99.90;;;;;;4991006;28;19931;-89
2023/03/08 10:45:29;;;;;;;;;;;1.50;99.90;;;;;;4991509;28;19932;-89
2023/03/08 10:48:07;;;;;;;;;;;1.60;99.90;;;;;;4975714;28;19928;-88
2023/03/08 10:51:14;;;;;;;;;;;1.70;99.90;;;;;;4974397;28;20521;-87
2023/03/08 11:03:59;;;;;;;;;;;2.30;99.90;;;;;;4951997;28;19925;-85
2023/03/08 11:06:28;;;;;;;;;;;2.30;99.90;;;;;;4972814;28;20013;-84
2023/03/08 11:08:56;;;;;;;;;;;2.30;99.90;;;;;;4975820;28;20002;-83
2023/03/08 11:11:23;;;;;;;;;;;2.10;99.90;;;;;;5022279;28;19931;-82
2023/03/08 11:13:50;;;;;;;;;;;2.10;99.90;;;;;;5001551;28;19932;-82
2023/03/08 11:16:22;;;;;;;;;;;3.80;99.90;;;;;;5019072;28;19929;-82
2023/03/08 11:18:52;;;;;;;;;;;2.40;99.90;;;;;;5032169;28;19939;-82
2023/03/08 11:21:25;;;;;;;;;;;2.10;99.90;;;;;;5033478;28;19932;-82
2023/03/08 11:23:57;;;;;;;;;;;2.20;99.90;;;;;;4997866;28;19921;-81
2023/03/08 11:26:29;;;;;;;;;;;2.30;99.90;;;;;;5019395;28;19925;-80
2023/03/08 11:29:02;;;;;;;;;;;2.40;99.90;;;;;;5020566;28;19928;-79
2023/03/08 11:31:32;;;;;;;;;;;2.50;99.90;;;;;;5010239;28;20434;-81
2023/03/08 11:34:22;;;;;;;;;;;2.50;99.90;;;;;;5007490;28;20016;-81
2023/03/08 11:36:55;;;;;;;;;;;2.60;99.90;;;;;;5001095;28;19926;-81
2023/03/08 11:39:25;;;;;;;;;;;2.60;99.90;;;;;;5027332;28;19967;-80
2023/03/08 11:41:55;;;;;;;;;;;2.60;99.90;;;;;;5019273;28;19922;-81
2023/03/08 11:44:31;;;;;;;;;;;2.50;99.90;;;;;;5031705;28;19924;-81
2023/03/08 11:47:10;;;;;;;;;;;2.50;99.90;;;;;;5005394;28;19922;-81
2023/03/08 11:49:45;;;;;;;;;;;2.40;99.90;;;;;;5001291;28;19925;-81
2023/03/08 11:52:17;;;;;;;;;;;2.50;99.90;;;;;;4982361;28;19921;-81
2023/03/08 11:54:50;;;;;;;;;;;2.50;99.90;;;;;;5008221;28;19960;-81
2023/03/08 11:57:17;;;;;;;;;;;2.50;99.90;;;;;;5012929;28;19924;-80
2023/03/08 11:59:46;;;;;;;;;;;2.40;99.90;;;;;;5003763;28;20001;-81
2023/03/08 12:02:15;;;;;;;;;;;2.30;99.90;;;;;;5026299;28;20332;-81
2023/03/08 12:04:44;;;;;;;;;;;2.30;99.90;;;;;;5022104;28;19928;-81
2023/03/08 12:07:16;;;;;;;;;;;2.40;99.90;;;;;;4985324;28;19925;-82
2023/03/08 12:09:52;;;;;;;;;;;2.40;99.90;;;;;;5007736;28;19929;-81
2023/03/08 12:12:21;;;;;;;;;;;2.40;99.90;;;;;;4997998;28;19926;-83
2023/03/08 12:14:52;;;;;;;;;;;2.40;99.90;;;;;;5008780;28;19933;-81
2023/03/08 12:17:20;;;;;;;;;;;2.50;99.90;;;;;;5010910;28;19933;-81
2023/03/08 12:19:48;;;;;;;;;;;2.50;99.90;;;;;;5010999;28;20664;-81
2023/03/08 12:22:26;;;;;;;;;;;1.10;99.90;;;;;;5009220;28;19925;-81
2023/03/08 12:24:56;;;;;;;;;;;2.60;99.90;;;;;;5004439;28;19925;-81
2023/03/08 12:27:27;;;;;;;;;;;2.60;99.90;;;;;;4998322;28;20031;-81
2023/03/08 12:29:56;;;;;;;;;;;2.60;99.90;;;;;;5021926;28;19925;-81
2023/03/08 12:32:23;;;;;;;;;;;2.60;99.90;;;;;;5009224;28;19933;-81
2023/03/08 12:35:00;;;;;;;;;;;2.70;99.90;;;;;;5019270;28;19929;-82
2023/03/08 12:37:29;;;;;;;;;;;2.80;99.90;;;;;;5003519;28;19936;-82
2023/03/08 12:39:57;;;;;;;;;;;2.80;99.90;;;;;;5015245;28;19956;-84
2023/03/08 12:42:32;;;;;;;;;;;2.80;99.90;;;;;;5031498;28;20456;-85
2023/03/08 12:45:10;;;;;;;;;;;2.90;99.90;;;;;;5025253;28;20386;-83
2023/03/08 12:47:36;;;;;;;;;;;3.00;99.90;;;;;;4996293;28;19932;-83
2023/03/08 12:50:10;;;;;;;;;;;3.10;99.90;;;;;;5003920;28;19925;-83
2023/03/08 12:52:39;;;;;;;;;;;3.20;99.90;;;;;;4999074;28;20048;-83
2023/03/08 12:55:08;;;;;;;;;;;3.30;99.90;;;;;;5013665;28;19987;-83
2023/03/08 12:57:41;;;;;;;;;;;3.40;99.90;;;;;;5013364;28;20405;-82
2023/03/08 13:00:24;;;;;;;;;;;4.50;99.90;;;;;;5004556;28;19924;-83
2023/03/08 13:02:58;;;;;;;;;;;3.50;99.90;;;;;;5014089;28;20036;-82
2023/03/08 13:05:29;;;;;;;;;;;3.40;99.90;;;;;;5021961;28;20375;-82
2023/03/08 13:08:07;;;;;;;;;;;3.60;99.90;;;;;;4991267;28;19929;-82
2023/03/08 13:10:35;;;;;;;;;;;3.60;99.90;;;;;;5011940;28;19979;-83
2023/03/08 13:13:21;;;;;;;;;;;3.70;99.90;;;;;;4993973;28;19922;-83
2023/03/08 13:15:48;;;;;;;;;;;3.70;99.90;;;;;;5029513;28;19929;-83
2023/03/08 13:18:15;;;;;;;;;;;3.50;99.90;;;;;;5004817;28;19928;-82
2023/03/08 13:20:49;;;;;;;;;;;3.40;99.90;;;;;;5023821;28;19925;-82
2023/03/08 13:23:23;;;;;;;;;;;3.30;99.90;;;;;;5029005;28;19948;-82
2023/03/08 13:26:11;;;;;;;;;;;3.30;99.90;;;;;;5002774;28;19929;-83
2023/03/08 13:28:38;;;;;;;;;;;3.30;99.90;;;;;;4988370;28;19975;-83
2023/03/08 13:31:12;;;;;;;;;;;3.20;99.90;;;;;;5028052;28;19925;-83
2023/03/08 13:33:41;;;;;;;;;;;3.10;99.90;;;;;;4980855;28;19926;-82
2023/03/08 13:36:15;;;;;;;;;;;3.10;99.90;;;;;;4996919;28;19925;-83
2023/03/08 13:38:43;;;;;;;;;;;3.20;99.90;;;;;;5020664;28;19921;-83
2023/03/08 13:41:09;;;;;;;;;;;3.30;99.90;;;;;;5013694;28;19926;-83